Ever Liven — BKIE — position and weather

sailwx.info

Track history (hours):
 
Tides and Currents Weather Stations Pressure Air Temp Water Temp Dewpoint Dewpoint Depression Visibility Wind Speed Wind Dir Waves Ship Positions

Ever Liven

Last reported at 2017-Dec-17 17:30 UTC. Time now 2017-Dec-17 17:33 UTC.
Position N 35°37' E 139°47'.

Length 335 m; draft 10.9 m.

Type: Ship (hazmat cat D). MMSI: 416481000.

Date/timePositionNaut miles runAvg speedWind from/ knotsBaromVisibWave heightAir tempDewpointWater temp
2017-Dec-17 17:30N 35°37' E 139°47'0 0.0
2017-Dec-17 16:57N 35°37' E 139°47'0 0.0
2017-Dec-17 16:30N 35°37' E 139°47'0 0.0
2017-Dec-17 16:00N 35°37' E 139°47'0 0.0
2017-Dec-17 15:30N 35°37' E 139°47'0 0.0
2017-Dec-17 15:00N 35°37' E 139°47'0 0.0
2017-Dec-17 14:30N 35°37' E 139°47'0 0.0
2017-Dec-17 14:00N 35°37' E 139°47'0 0.0
2017-Dec-17 13:30N 35°37' E 139°47'0 0.0
2017-Dec-17 13:00N 35°37' E 139°47'0 0.0
2017-Dec-17 12:30N 35°37' E 139°47'0 0.0
2017-Dec-17 12:00N 35°37' E 139°47'0 0.0
2017-Dec-17 11:18N 35°37' E 139°47'0 0.0
2017-Dec-17 11:00N 35°37' E 139°47'0 0.0
2017-Dec-17 10:24N 35°37' E 139°47'0 0.0
2017-Dec-17 10:00N 35°37' E 139°47'1 1.2
2017-Dec-17 09:30N 35°36' E 139°47'5 9.7
2017-Dec-17 09:00N 35°33' E 139°51'4 8.2
2017-Dec-17 08:30N 35°29' E 139°51'612.7
2017-Dec-17 08:00N 35°24' E 139°46'611.9
2017-Dec-17 07:30N 35°18' E 139°44'611.9
2017-Dec-17 07:00N 35°13' E 139°47'4 8.5
2017-Dec-17 06:30N 35°08' E 139°46'4 7.7
2017-Dec-17 06:01N 35°05' E 139°44'4 8.6
2017-Dec-17 05:30N 35°01' E 139°42'4 8.2
2017-Dec-17 05:00N 34°57' E 139°41'3 6.5
2017-Dec-17 04:30N 34°54' E 139°43'4 8.2
2017-Dec-17 04:00N 34°50' E 139°45'712.7
2017-Dec-17 03:29N 34°50' E 139°53'612.5
2017-Dec-17 03:00N 34°50' E 140°00'611.7
2017-Dec-17 02:30N 34°50' E 140°07'611.6
2017-Dec-17 02:01N 34°50' E 140°14'611.7
2017-Dec-17 01:30N 34°52' E 140°21'611.2
2017-Dec-17 01:00N 34°56' E 140°26'611.3
2017-Dec-17 00:27N 35°00' E 140°32'  
2017-Dec-14 14:00N 45°00' E 151°24'19216.0 350 / 201014.0 2.2 -0.0-2.7 3.0
2017-Dec-14 02:00N 47°30' E 154°18'18715.6 350 / 301001.0 2.2 2.0-3.3 3.0
2017-Dec-13 14:00N 49°54' E 157°18'19413.8 040 / 40992.0 2.2 -2.0-4.9 4.0
2017-Dec-13 00:00N 52°12' E 160°54'16715.2 050 / 44988.0 0.5 -2.0-8.5
2017-Dec-12 13:00N 53°00' E 165°18'19615.0 090 / 321009.0 2.2 -0.0-5.8-0.0
2017-Dec-12 00:00N 53°48' E 170°36'17214.3 060 / 201020.0 2.2 -1.0-7.1-1.0
2017-Dec-11 12:00N 54°18' E 175°24'15813.2 080 / 171011.0 2.2 -1.0-3.8-0.0
2017-Dec-11 00:00N 54°36' E 179°54'19416.2 090 / 201001.0 2.2 -1.0-7.1-1.0
2017-Dec-10 12:00N 54°42' W 174°30'18815.6 080 / 21998.0 2.2 -0.0-2.7 3.0
2017-Dec-10 00:00N 54°36' W 169°06'19414.9 030 / 301000.0 2.2 2.0-0.5 2.0
2017-Dec-09 11:00N 54°12' W 163°36'17214.3 360 / 40990.0 2.2 2.0-0.5-0.0
2017-Dec-08 23:00N 53°18' W 159°00'20116.7 110 / 10987.0 2.2 6.0 1.5 7.0
2017-Dec-08 11:00N 51°54' W 154°00'18515.4 130 / 20991.0 2.2 6.0 1.5 5.0
2017-Dec-07 23:00N 50°24' W 149°42'8216.3 190 / 15997.0 5.4 6.0 1.5 8.0
2017-Dec-07 18:00N 49°48' W 147°48'   140 / 17999.0 1.1 7.0 2.6
Track history (hours):
 
Tides and Currents Weather Stations Pressure Air Temp Water Temp Dewpoint Dewpoint Depression Visibility Wind Speed Wind Dir Waves Ship Positions

Ever Liven

Last reported at 2017-Dec-17 17:30 UTC. Time now 2017-Dec-17 17:33 UTC.
Position N 35°37' E 139°47'.

Length 335 m; draft 10.9 m.

Type: Ship (hazmat cat D). MMSI: 416481000.

Date/timePositionNaut miles runAvg speedWind from/ knotsBaromVisibWave heightAir tempDewpointWater temp
2017-Dec-17 17:30N 35°37' E 139°47'0 0.0
2017-Dec-17 16:57N 35°37' E 139°47'0 0.0
2017-Dec-17 16:30N 35°37' E 139°47'0 0.0
2017-Dec-17 16:00N 35°37' E 139°47'0 0.0
2017-Dec-17 15:30N 35°37' E 139°47'0 0.0
2017-Dec-17 15:00N 35°37' E 139°47'0 0.0
2017-Dec-17 14:30N 35°37' E 139°47'0 0.0
2017-Dec-17 14:00N 35°37' E 139°47'0 0.0
2017-Dec-17 13:30N 35°37' E 139°47'0 0.0
2017-Dec-17 13:00N 35°37' E 139°47'0 0.0
2017-Dec-17 12:30N 35°37' E 139°47'0 0.0
2017-Dec-17 12:00N 35°37' E 139°47'0 0.0
2017-Dec-17 11:18N 35°37' E 139°47'0 0.0
2017-Dec-17 11:00N 35°37' E 139°47'0 0.0
2017-Dec-17 10:24N 35°37' E 139°47'0 0.0
2017-Dec-17 10:00N 35°37' E 139°47'1 1.2
2017-Dec-17 09:30N 35°36' E 139°47'5 9.7
2017-Dec-17 09:00N 35°33' E 139°51'4 8.2
2017-Dec-17 08:30N 35°29' E 139°51'612.7
2017-Dec-17 08:00N 35°24' E 139°46'611.9
2017-Dec-17 07:30N 35°18' E 139°44'611.9
2017-Dec-17 07:00N 35°13' E 139°47'4 8.5
2017-Dec-17 06:30N 35°08' E 139°46'4 7.7
2017-Dec-17 06:01N 35°05' E 139°44'4 8.6
2017-Dec-17 05:30N 35°01' E 139°42'4 8.2
2017-Dec-17 05:00N 34°57' E 139°41'3 6.5
2017-Dec-17 04:30N 34°54' E 139°43'4 8.2
2017-Dec-17 04:00N 34°50' E 139°45'712.7
2017-Dec-17 03:29N 34°50' E 139°53'612.5
2017-Dec-17 03:00N 34°50' E 140°00'611.7
2017-Dec-17 02:30N 34°50' E 140°07'611.6
2017-Dec-17 02:01N 34°50' E 140°14'611.7
2017-Dec-17 01:30N 34°52' E 140°21'611.2
2017-Dec-17 01:00N 34°56' E 140°26'611.3
2017-Dec-17 00:27N 35°00' E 140°32'  
2017-Dec-14 14:00N 45°00' E 151°24'19216.0 350 / 201014.0 2.2 -0.0-2.7 3.0
2017-Dec-14 02:00N 47°30' E 154°18'18715.6 350 / 301001.0 2.2 2.0-3.3 3.0
2017-Dec-13 14:00N 49°54' E 157°18'19413.8 040 / 40992.0 2.2 -2.0-4.9 4.0
2017-Dec-13 00:00N 52°12' E 160°54'16715.2 050 / 44988.0 0.5 -2.0-8.5
2017-Dec-12 13:00N 53°00' E 165°18'19615.0 090 / 321009.0 2.2 -0.0-5.8-0.0
2017-Dec-12 00:00N 53°48' E 170°36'17214.3 060 / 201020.0 2.2 -1.0-7.1-1.0
2017-Dec-11 12:00N 54°18' E 175°24'15813.2 080 / 171011.0 2.2 -1.0-3.8-0.0
2017-Dec-11 00:00N 54°36' E 179°54'19416.2 090 / 201001.0 2.2 -1.0-7.1-1.0
2017-Dec-10 12:00N 54°42' W 174°30'18815.6 080 / 21998.0 2.2 -0.0-2.7 3.0
2017-Dec-10 00:00N 54°36' W 169°06'19414.9 030 / 301000.0 2.2 2.0-0.5 2.0
2017-Dec-09 11:00N 54°12' W 163°36'17214.3 360 / 40990.0 2.2 2.0-0.5-0.0
2017-Dec-08 23:00N 53°18' W 159°00'20116.7 110 / 10987.0 2.2 6.0 1.5 7.0
2017-Dec-08 11:00N 51°54' W 154°00'18515.4 130 / 20991.0 2.2 6.0 1.5 5.0
2017-Dec-07 23:00N 50°24' W 149°42'8216.3 190 / 15997.0 5.4 6.0 1.5 8.0
2017-Dec-07 18:00N 49°48' W 147°48'   140 / 17999.0 1.1 7.0 2.6

Dump ship's entire track history